Time;durP1;ratioP1;P1;durP2;ratioP2;P2;SDS_P1;SDS_P2;PMS_P1;PMS_P2;Temp;Humidity;BMP_temperature;BMP_pressure;BME280_temperature;BME280_humidity;BME280_pressure;Samples;Min_cycle;Max_cycle;Signal;HPM_P1;HPM_P2
2023/03/11 00:00:12;;;;;;;;;;;;;;;2.94;86.91;98352.94;4178682;28;20043;-68
2023/03/11 00:02:14;;;;;;;;;;;;;;;2.95;87.25;98367.94;4180352;28;20020;-65
2023/03/11 00:04:16;;;;;;;;;;;;;;;2.93;87.18;98367.28;4181543;28;20685;-65
2023/03/11 00:06:18;;;;;;;;;;;;;;;2.95;87.54;98382.09;4181685;28;20019;-66
2023/03/11 00:08:22;;;;;;;;;;;;;;;2.99;87.44;98396.69;4181098;28;19975;-66
2023/03/11 00:10:24;;;;;;;;;;;;;;;3.02;87.40;98400.81;4181654;28;20442;-66
2023/03/11 00:12:26;;;;;;;;;;;;;;;3.05;87.13;98413.78;4180903;28;20036;-65
2023/03/11 00:14:30;;;;;;;;;;;;;;;3.08;87.06;98420.59;4181319;28;20019;-65
2023/03/11 00:16:32;;;;;;;;;;;;;;;3.09;86.35;98435.56;4179766;28;20051;-66
2023/03/11 00:18:34;;;;;;;;;;;;;;;3.09;86.03;98435.56;4181529;28;20391;-66
2023/03/11 00:20:36;;;;;;;;;;;;;;;3.09;86.10;98446.25;4181630;28;20385;-65
2023/03/11 00:22:38;;;;;;;;;;;;;;;3.11;85.72;98457.56;4181223;28;20023;-66
2023/03/11 00:24:40;;;;;;;;;;;;;;;3.12;85.45;98456.53;4181630;28;20454;-65
2023/03/11 00:26:42;;;;;;;;;;;;;;;3.12;85.36;98468.06;4180562;28;20035;-66
2023/03/11 00:28:47;;;;;;;;;;;;;;;3.11;84.75;98482.41;4180707;28;20424;-66
2023/03/11 00:30:50;;;;;;;;;;;;;;;3.09;84.29;98479.09;4180285;28;20418;-66
2023/03/11 00:32:54;;;;;;;;;;;;;;;3.08;84.00;98489.94;4180852;28;20373;-66
2023/03/11 00:34:56;;;;;;;;;;;;;;;3.05;83.84;98496.47;4181129;28;20023;-66
2023/03/11 00:36:58;;;;;;;;;;;;;;;3.03;83.67;98496.66;4181073;28;20361;-66
2023/03/11 00:39:01;;;;;;;;;;;;;;;2.99;83.29;98499.88;4180077;28;20027;-66
2023/03/11 00:41:03;;;;;;;;;;;;;;;2.97;83.28;98500.03;4180868;28;20482;-66
2023/03/11 00:43:06;;;;;;;;;;;;;;;2.98;83.52;98501.72;4180195;28;20016;-66
2023/03/11 00:45:12;;;;;;;;;;;;;;;2.98;83.57;98508.84;4163787;28;20595;-66
2023/03/11 00:47:15;;;;;;;;;;;;;;;2.97;83.34;98512.56;4195591;28;19925;-66
2023/03/11 00:49:17;;;;;;;;;;;;;;;2.99;83.58;98513.19;4181123;28;20558;-65
2023/03/11 00:51:19;;;;;;;;;;;;;;;2.99;83.36;98515.88;4180025;28;20646;-66
2023/03/11 00:53:21;;;;;;;;;;;;;;;3.00;83.23;98520.19;4180446;28;20023;-66
2023/03/11 00:55:24;;;;;;;;;;;;;;;2.99;82.88;98524.69;4172791;28;20020;-65
2023/03/11 00:57:27;;;;;;;;;;;;;;;2.98;82.82;98530.19;4194994;28;20469;-66
2023/03/11 00:59:30;;;;;;;;;;;;;;;2.95;82.74;98531.41;4181183;28;19935;-66
2023/03/11 01:01:32;;;;;;;;;;;;;;;2.93;82.48;98535.25;4195662;28;20031;-66
2023/03/11 01:03:36;;;;;;;;;;;;;;;2.88;82.48;98547.31;4180415;28;20019;-66
2023/03/11 01:05:38;;;;;;;;;;;;;;;2.81;82.37;98540.22;4180749;28;20078;-66
2023/03/11 01:07:40;;;;;;;;;;;;;;;2.88;82.34;98563.31;4179854;28;20011;-66
2023/03/11 01:09:42;;;;;;;;;;;;;;;2.87;82.48;98568.81;4180765;28;20450;-65
2023/03/11 01:11:44;;;;;;;;;;;;;;;2.87;82.49;98571.50;4168786;28;20425;-66
2023/03/11 01:13:46;;;;;;;;;;;;;;;2.88;82.45;98578.47;4171096;28;20019;-66
2023/03/11 01:15:48;;;;;;;;;;;;;;;2.85;81.99;98584.16;4180355;28;20478;-66
2023/03/11 01:17:50;;;;;;;;;;;;;;;2.83;82.19;98584.31;4195132;28;20015;-66
2023/03/11 01:19:53;;;;;;;;;;;;;;;2.81;82.04;98591.69;4195601;28;20416;-66
2023/03/11 01:21:57;;;;;;;;;;;;;;;2.79;82.02;98601.72;4195000;28;20040;-66
2023/03/11 01:23:59;;;;;;;;;;;;;;;2.78;82.04;98608.03;4179503;28;20088;-66
2023/03/11 01:26:01;;;;;;;;;;;;;;;2.80;82.27;98608.69;4172717;28;20016;-66
2023/03/11 01:28:03;;;;;;;;;;;;;;;2.81;82.43;98621.00;4180024;28;20023;-66
2023/03/11 01:30:06;;;;;;;;;;;;;;;2.79;82.20;98622.19;4195744;28;20015;-66
2023/03/11 01:32:08;;;;;;;;;;;;;;;2.79;82.01;98627.53;4177859;28;20016;-66
2023/03/11 01:34:10;;;;;;;;;;;;;;;2.77;82.16;98640.22;4178778;28;20027;-66
2023/03/11 01:36:13;;;;;;;;;;;;;;;2.74;81.94;98641.38;4180015;28;20040;-66
2023/03/11 01:38:16;;;;;;;;;;;;;;;2.73;82.13;98644.22;4179444;28;20019;-66
2023/03/11 01:40:19;;;;;;;;;;;;;;;2.74;82.47;98659.22;4196095;28;20059;-66
2023/03/11 01:42:21;;;;;;;;;;;;;;;2.76;82.36;98666.06;4179368;28;20381;-66
2023/03/11 01:44:23;;;;;;;;;;;;;;;2.76;82.39;98667.88;4165624;28;20028;-66
2023/03/11 01:46:26;;;;;;;;;;;;;;;2.76;82.45;98675.84;4171174;28;20020;-66
2023/03/11 01:48:29;;;;;;;;;;;;;;;2.77;82.55;98688.19;4186915;28;20022;-65
2023/03/11 01:50:32;;;;;;;;;;;;;;;2.78;82.42;98685.34;4180135;28;20011;-65
2023/03/11 01:52:35;;;;;;;;;;;;;;;2.77;82.09;98699.69;4170896;28;20019;-65
2023/03/11 01:54:38;;;;;;;;;;;;;;;2.76;82.17;98699.84;4165744;28;20028;-65
2023/03/11 01:56:41;;;;;;;;;;;;;;;2.80;82.41;98714.50;4194641;28;20015;-65
2023/03/11 01:58:45;;;;;;;;;;;;;;;2.78;82.17;98716.53;4194998;28;20665;-65
2023/03/11 02:00:47;;;;;;;;;;;;;;;2.75;81.95;98723.03;4178916;28;20027;-65
2023/03/11 02:02:50;;;;;;;;;;;;;;;2.75;82.07;98727.53;4185837;28;20048;-65
2023/03/11 02:04:53;;;;;;;;;;;;;;;2.74;81.90;98728.53;4170701;28;20050;-65
2023/03/11 02:06:58;;;;;;;;;;;;;;;2.74;82.44;98734.69;4178141;28;20079;-65
2023/03/11 02:09:01;;;;;;;;;;;;;;;2.74;82.36;98753.34;4169779;28;20028;-65
2023/03/11 02:11:04;;;;;;;;;;;;;;;2.73;82.06;98753.53;4179395;28;20076;-65
2023/03/11 02:13:06;;;;;;;;;;;;;;;2.74;82.47;98765.84;4170236;28;20016;-65
2023/03/11 02:15:09;;;;;;;;;;;;;;;2.70;82.34;98774.19;4178398;28;20450;-65
2023/03/11 02:17:11;;;;;;;;;;;;;;;2.72;82.47;98778.53;4193568;28;20011;-65
2023/03/11 02:19:15;;;;;;;;;;;;;;;2.73;82.36;98789.03;4179673;28;20023;-65
2023/03/11 02:21:20;;;;;;;;;;;;;;;2.72;82.38;98798.03;4179532;28;20019;-65
2023/03/11 02:23:24;;;;;;;;;;;;;;;2.69;82.28;98809.03;4176359;28;20417;-65
2023/03/11 02:25:29;;;;;;;;;;;;;;;2.69;82.30;98814.34;4194977;28;20023;-65
2023/03/11 02:27:33;;;;;;;;;;;;;;;2.70;82.49;98829.34;4193905;28;20015;-65
2023/03/11 02:29:38;;;;;;;;;;;;;;;2.72;82.56;98831.84;4178098;28;20498;-65
2023/03/11 02:31:40;;;;;;;;;;;;;;;2.69;82.86;98841.00;4178017;28;20031;-64
2023/03/11 02:33:42;;;;;;;;;;;;;;;2.67;82.32;98846.53;4170592;28;20012;-64
2023/03/11 02:35:44;;;;;;;;;;;;;;;2.68;82.63;98852.66;4195034;28;20023;-64
2023/03/11 02:37:46;;;;;;;;;;;;;;;2.67;82.29;98862.50;4179124;28;20015;-64
2023/03/11 02:39:49;;;;;;;;;;;;;;;2.68;82.56;98864.19;4167295;28;20024;-65
2023/03/11 02:41:52;;;;;;;;;;;;;;;2.69;82.29;98878.34;4194110;28;20035;-64
2023/03/11 02:43:55;;;;;;;;;;;;;;;2.68;82.51;98880.19;4179384;28;20047;-65
2023/03/11 02:45:58;;;;;;;;;;;;;;;2.70;82.40;98898.66;4169108;28;20011;-65
2023/03/11 02:48:01;;;;;;;;;;;;;;;2.67;82.21;98907.81;4192934;28;20607;-64
2023/03/11 02:50:05;;;;;;;;;;;;;;;2.66;82.13;98910.66;4194142;28;20041;-64
2023/03/11 02:52:08;;;;;;;;;;;;;;;2.69;82.26;98920.97;4170428;28;20040;-65
2023/03/11 02:54:10;;;;;;;;;;;;;;;2.70;82.25;98931.47;4179229;28;20376;-65
2023/03/11 02:56:12;;;;;;;;;;;;;;;2.73;82.17;98932.13;4178056;28;20028;-65
2023/03/11 02:58:14;;;;;;;;;;;;;;;2.73;82.19;98937.47;4177671;28;20015;-65
2023/03/11 03:00:17;;;;;;;;;;;;;;;2.71;81.81;98945.63;4177977;28;20391;-65
2023/03/11 03:02:28;;;;;;;;;;;;;;;2.70;81.56;98949.31;4177082;28;20003;-65
2023/03/11 03:04:30;;;;;;;;;;;;;;;2.67;81.94;98961.13;4168343;28;20100;-64
2023/03/11 03:06:34;;;;;;;;;;;;;;;2.66;81.79;98963.97;4177502;28;20015;-65
2023/03/11 03:08:36;;;;;;;;;;;;;;;2.64;81.87;98966.00;4178783;28;20035;-64
2023/03/11 03:10:38;;;;;;;;;;;;;;;2.63;81.96;98975.81;4177792;28;20024;-65
2023/03/11 03:12:40;;;;;;;;;;;;;;;2.62;81.96;98992.00;4177077;28;20031;-64
2023/03/11 03:14:42;;;;;;;;;;;;;;;2.62;82.16;98994.66;4178150;28;20007;-64
2023/03/11 03:16:45;;;;;;;;;;;;;;;2.59;82.17;98995.81;4169672;28;20004;-64
2023/03/11 03:18:49;;;;;;;;;;;;;;;2.59;82.27;99008.31;4193073;28;20007;-65
2023/03/11 03:20:50;;;;;;;;;;;;;;;2.57;82.29;99018.28;4178417;28;20035;-65
2023/03/11 03:22:53;;;;;;;;;;;;;;;2.58;82.29;99020.78;4177325;28;20031;-64
2023/03/11 03:24:58;;;;;;;;;;;;;;;2.60;82.35;99023.28;4176818;28;20032;-65
2023/03/11 03:27:00;;;;;;;;;;;;;;;2.58;82.11;99042.09;4170518;28;20498;-64
2023/03/11 03:29:02;;;;;;;;;;;;;;;2.59;82.56;99046.44;4192600;28;20070;-65
2023/03/11 03:31:05;;;;;;;;;;;;;;;2.58;82.45;99060.78;4178544;28;20012;-65
2023/03/11 03:33:07;;;;;;;;;;;;;;;2.59;82.49;99069.63;4168968;28;20427;-65
2023/03/11 03:35:11;;;;;;;;;;;;;;;2.59;82.39;99083.78;4172837;28;20027;-65
2023/03/11 03:37:28;;;;;;;;;;;;;;;2.58;82.39;99090.09;4172906;28;20019;-64
2023/03/11 03:39:30;;;;;;;;;;;;;;;2.58;82.27;99105.25;4171990;28;20493;-65
2023/03/11 03:41:34;;;;;;;;;;;;;;;2.57;82.51;99108.91;4173151;28;20905;-64
2023/03/11 03:43:36;;;;;;;;;;;;;;;2.57;82.64;99117.75;4196446;28;20050;-64
2023/03/11 03:45:38;;;;;;;;;;;;;;;2.60;82.52;99124.56;4173194;28;20015;-65
2023/03/11 03:47:41;;;;;;;;;;;;;;;2.59;82.53;99129.09;4172621;28;20123;-65
2023/03/11 03:49:43;;;;;;;;;;;;;;;2.57;82.52;99136.41;4197187;28;20023;-65
2023/03/11 03:51:46;;;;;;;;;;;;;;;2.57;82.28;99143.56;4195817;28;20035;-65
2023/03/11 03:53:56;;;;;;;;;;;;;;;2.57;82.58;99154.22;4180828;28;20706;-65
2023/03/11 03:56:01;;;;;;;;;;;;;;;2.53;82.35;99164.38;4172277;28;20029;-65
2023/03/11 03:58:04;;;;;;;;;;;;;;;2.53;82.65;99169.72;4196476;28;20027;-65
2023/03/11 04:00:09;;;;;;;;;;;;;;;2.49;82.52;99174.53;4180482;28;20031;-65
2023/03/11 04:02:18;;;;;;;;;;;;;;;2.49;82.65;99187.03;4179521;28;20019;-65
2023/03/11 04:04:21;;;;;;;;;;;;;;;2.46;82.72;99193.53;4180193;28;20016;-65
2023/03/11 04:06:24;;;;;;;;;;;;;;;2.47;82.78;99203.16;4187507;28;20022;-65
2023/03/11 04:08:33;;;;;;;;;;;;;;;2.46;83.13;99204.19;4197143;28;20453;-65
2023/03/11 04:10:35;;;;;;;;;;;;;;;2.47;82.86;99211.16;4180281;28;20123;-65
2023/03/11 04:12:38;;;;;;;;;;;;;;;2.48;83.09;99207.50;4179779;28;20012;-65
2023/03/11 04:14:42;;;;;;;;;;;;;;;2.51;82.98;99217.03;4181563;28;20033;-65
2023/03/11 04:16:44;;;;;;;;;;;;;;;2.53;82.88;99221.19;4179925;28;20016;-65
2023/03/11 04:18:48;;;;;;;;;;;;;;;2.52;82.61;99232.00;4196218;28;20016;-65
2023/03/11 04:20:52;;;;;;;;;;;;;;;2.51;82.55;99230.34;4172747;28;20028;-65
2023/03/11 04:22:55;;;;;;;;;;;;;;;2.51;82.76;99241.00;4172435;28;20016;-65
2023/03/11 04:25:00;;;;;;;;;;;;;;;2.48;82.36;99252.81;4180453;28;20169;-65
2023/03/11 04:27:02;;;;;;;;;;;;;;;2.47;82.49;99259.13;4196492;28;20007;-65
2023/03/11 04:29:07;;;;;;;;;;;;;;;2.48;82.67;99263.47;4172220;28;20023;-65
2023/03/11 04:31:14;;;;;;;;;;;;;;;2.46;82.54;99264.63;4196635;28;20437;-65
2023/03/11 04:33:17;;;;;;;;;;;;;;;2.46;82.59;99268.16;4179459;28;20490;-65
2023/03/11 04:35:19;;;;;;;;;;;;;;;2.44;82.50;99267.44;4170881;28;20490;-65
2023/03/11 04:37:21;;;;;;;;;;;;;;;2.44;82.71;99280.78;4179261;28;20028;-65
2023/03/11 04:39:23;;;;;;;;;;;;;;;2.45;82.54;99278.97;4180272;28;20019;-65
2023/03/11 04:41:27;;;;;;;;;;;;;;;2.44;82.72;99302.09;4152045;28;20011;-65
2023/03/11 04:43:29;;;;;;;;;;;;;;;2.47;82.55;99298.28;4180753;28;20384;-64
2023/03/11 04:45:32;;;;;;;;;;;;;;;2.48;82.60;99300.78;4195501;28;20059;-66
2023/03/11 04:47:36;;;;;;;;;;;;;;;2.49;82.45;99313.13;4168851;28;20031;-64
2023/03/11 04:49:40;;;;;;;;;;;;;;;2.48;82.11;99315.97;4196252;28;20375;-65
2023/03/11 04:51:42;;;;;;;;;;;;;;;2.46;82.55;99317.91;4180188;28;20003;-65
2023/03/11 04:53:45;;;;;;;;;;;;;;;2.46;82.35;99325.91;4179752;28;20036;-66
2023/03/11 04:55:49;;;;;;;;;;;;;;;2.46;82.65;99328.59;4173031;28;20020;-65
2023/03/11 04:57:52;;;;;;;;;;;;;;;2.47;83.09;99336.41;4180120;28;20007;-65
2023/03/11 04:59:54;;;;;;;;;;;;;;;2.48;83.15;99343.44;4179734;28;20036;-65
2023/03/11 05:01:56;;;;;;;;;;;;;;;2.46;82.73;99350.75;4178794;28;20012;-65
2023/03/11 05:03:58;;;;;;;;;;;;;;;2.44;82.79;99355.38;4171954;28;20012;-65
2023/03/11 05:06:00;;;;;;;;;;;;;;;2.45;83.11;99351.75;4180840;28;20020;-65
2023/03/11 05:08:03;;;;;;;;;;;;;;;2.46;83.15;99363.22;4179377;28;20016;-65
2023/03/11 05:10:06;;;;;;;;;;;;;;;2.47;83.23;99373.72;4171501;28;20031;-65
2023/03/11 05:12:10;;;;;;;;;;;;;;;2.47;83.03;99375.56;4167909;28;20021;-65
2023/03/11 05:14:13;;;;;;;;;;;;;;;2.47;83.40;99379.06;4170183;28;20379;-65
2023/03/11 05:16:15;;;;;;;;;;;;;;;2.48;83.32;99385.25;4179564;28;20019;-65
2023/03/11 05:18:18;;;;;;;;;;;;;;;2.50;83.14;99399.25;4177553;28;20411;-65
2023/03/11 05:20:21;;;;;;;;;;;;;;;2.51;83.14;99408.91;4186176;28;20007;-64
2023/03/11 05:22:23;;;;;;;;;;;;;;;2.52;82.94;99415.91;4177558;28;20478;-62
2023/03/11 05:24:25;;;;;;;;;;;;;;;2.49;82.59;99426.88;4169643;28;20032;-64
2023/03/11 05:26:27;;;;;;;;;;;;;;;2.46;82.58;99428.03;4169294;28;20032;-64
2023/03/11 05:28:29;;;;;;;;;;;;;;;2.45;82.34;99437.03;4169886;28;20032;-64
2023/03/11 05:30:33;;;;;;;;;;;;;;;2.42;82.36;99445.31;4171452;28;20056;-65
2023/03/11 05:32:35;;;;;;;;;;;;;;;2.40;82.44;99444.66;4175840;28;20016;-63
2023/03/11 05:34:37;;;;;;;;;;;;;;;2.41;82.49;99448.97;4176396;28;20023;-65
2023/03/11 05:36:40;;;;;;;;;;;;;;;2.43;82.71;99451.47;4176522;28;20027;-64
2023/03/11 05:38:42;;;;;;;;;;;;;;;2.44;82.53;99455.84;4178488;28;20038;-65
2023/03/11 05:40:44;;;;;;;;;;;;;;;2.43;82.56;99463.00;4167503;28;20974;-66
2023/03/11 05:42:46;;;;;;;;;;;;;;;2.42;82.56;99474.66;4168503;28;20008;-66
2023/03/11 05:44:50;;;;;;;;;;;;;;;2.39;82.46;99474.94;4175469;28;20015;-65
2023/03/11 05:46:53;;;;;;;;;;;;;;;2.39;82.42;99482.13;4168762;28;20389;-63
2023/03/11 05:48:55;;;;;;;;;;;;;;;2.39;82.47;99488.28;4172450;28;20217;-61
2023/03/11 05:50:58;;;;;;;;;;;;;;;2.38;82.69;99493.75;4178621;28;20676;-64
2023/03/11 05:53:01;;;;;;;;;;;;;;;2.38;82.67;99497.25;4178711;28;20792;-61
2023/03/11 05:55:05;;;;;;;;;;;;;;;2.41;82.72;99501.44;4177496;28;20458;-64
2023/03/11 05:57:08;;;;;;;;;;;;;;;2.42;82.66;99514.63;4176758;28;20012;-63
2023/03/11 05:59:10;;;;;;;;;;;;;;;2.42;82.59;99519.94;4194325;28;20381;-64
2023/03/11 06:01:14;;;;;;;;;;;;;;;2.42;82.43;99513.78;4177856;28;20515;-65
2023/03/11 06:03:17;;;;;;;;;;;;;;;2.42;82.35;99513.78;4177528;28;20015;-64
2023/03/11 06:05:20;;;;;;;;;;;;;;;2.44;82.34;99528.63;4172211;28;20019;-63
2023/03/11 06:07:24;;;;;;;;;;;;;;;2.42;81.80;99525.28;4160625;28;20055;-63
2023/03/11 06:09:26;;;;;;;;;;;;;;;2.42;82.02;99530.59;4194636;28;19960;-61
2023/03/11 06:11:29;;;;;;;;;;;;;;;2.40;81.90;99537.94;4175244;28;20028;-63
2023/03/11 06:13:32;;;;;;;;;;;;;;;2.39;82.23;99538.06;4173881;28;20043;-64
2023/03/11 06:15:34;;;;;;;;;;;;;;;2.41;82.12;99546.75;4175156;28;20035;-64
2023/03/11 06:17:36;;;;;;;;;;;;;;;2.42;81.97;99551.09;4169477;28;20079;-62
2023/03/11 06:19:39;;;;;;;;;;;;;;;2.41;81.81;99560.91;4169192;28;20388;-64
2023/03/11 06:21:43;;;;;;;;;;;;;;;2.41;81.79;99560.91;4167815;28;20028;-63
2023/03/11 06:23:45;;;;;;;;;;;;;;;2.38;81.90;99560.38;4168345;28;20051;-63
2023/03/11 06:25:54;;;;;;;;;;;;;;;2.42;81.85;99567.91;4166448;28;20043;-64
2023/03/11 06:27:56;;;;;;;;;;;;;;;2.40;82.04;99574.38;4186735;28;20442;-62
2023/03/11 06:30:00;;;;;;;;;;;;;;;2.39;81.94;99568.22;4169082;28;20378;-63
2023/03/11 06:32:03;;;;;;;;;;;;;;;2.38;81.88;99579.84;4172479;28;20044;-63
2023/03/11 06:34:05;;;;;;;;;;;;;;;2.39;82.08;99586.03;4173117;28;20019;-65
2023/03/11 06:36:10;;;;;;;;;;;;;;;2.40;81.81;99585.03;4166474;28;19999;-64
2023/03/11 06:38:12;;;;;;;;;;;;;;;2.43;82.14;99590.06;4174963;28;20857;-64
2023/03/11 06:40:14;;;;;;;;;;;;;;;2.44;81.78;99605.06;4170426;28;20502;-62
2023/03/11 06:42:16;;;;;;;;;;;;;;;2.45;81.64;99606.75;4192265;28;20019;-65
2023/03/11 06:44:19;;;;;;;;;;;;;;;2.41;81.34;99610.72;4172707;28;20035;-65
2023/03/11 06:46:22;;;;;;;;;;;;;;;2.43;81.41;99622.91;4185587;28;20039;-65
2023/03/11 06:48:26;;;;;;;;;;;;;;;2.44;81.08;99621.88;4166771;28;20027;-64
2023/03/11 06:50:29;;;;;;;;;;;;;;;2.44;81.00;99626.41;4186359;28;20043;-66
2023/03/11 06:52:36;;;;;;;;;;;;;;;2.45;80.83;99636.91;4169032;28;20015;-64
2023/03/11 06:54:38;;;;;;;;;;;;;;;2.47;80.46;99644.75;4173537;28;20020;-65
2023/03/11 06:56:40;;;;;;;;;;;;;;;2.46;80.28;99651.06;4168328;28;20015;-65
2023/03/11 06:58:44;;;;;;;;;;;;;;;2.43;80.07;99656.69;4170564;28;20025;-66
2023/03/11 07:00:48;;;;;;;;;;;;;;;2.42;80.10;99661.19;4172652;28;20340;-66
2023/03/11 07:02:50;;;;;;;;;;;;;;;2.43;80.18;99670.00;4173383;28;20023;-65
2023/03/11 07:04:52;;;;;;;;;;;;;;;2.45;79.95;99670.72;4176799;28;20051;-65
2023/03/11 07:06:55;;;;;;;;;;;;;;;2.43;80.04;99678.88;4190773;28;20072;-66
2023/03/11 07:08:59;;;;;;;;;;;;;;;2.45;79.75;99678.72;4191524;28;20470;-61
2023/03/11 07:11:03;;;;;;;;;;;;;;;2.45;79.55;99678.72;4171962;28;20023;-64
2023/03/11 07:13:05;;;;;;;;;;;;;;;2.42;79.30;99689.69;4188437;28;20493;-63
2023/03/11 07:15:07;;;;;;;;;;;;;;;2.41;79.40;99688.00;4167910;28;20016;-63
2023/03/11 07:17:11;;;;;;;;;;;;;;;2.40;79.08;99696.97;4185486;28;20015;-63
2023/03/11 07:19:21;;;;;;;;;;;;;;;2.41;79.19;99701.31;4165836;28;20409;-64
2023/03/11 07:21:23;;;;;;;;;;;;;;;2.41;78.80;99706.66;4170255;28;20020;-64
2023/03/11 07:23:25;;;;;;;;;;;;;;;2.42;78.81;99717.16;4170554;28;20015;-65
2023/03/11 07:25:28;;;;;;;;;;;;;;;2.43;78.68;99715.31;4170097;28;20023;-64
2023/03/11 07:27:30;;;;;;;;;;;;;;;2.45;78.62;99726.69;4174430;28;20011;-62
2023/03/11 07:29:32;;;;;;;;;;;;;;;2.46;78.35;99750.53;4173130;28;20007;-62
2023/03/11 07:31:34;;;;;;;;;;;;;;;2.47;78.13;99738.84;4169922;28;20565;-61
2023/03/11 07:33:37;;;;;;;;;;;;;;;2.47;77.74;99749.53;4171350;28;20023;-63
2023/03/11 07:35:39;;;;;;;;;;;;;;;2.46;77.58;99749.66;4170763;28;19976;-66
2023/03/11 07:37:41;;;;;;;;;;;;;;;2.45;77.51;99759.50;4170733;28;20040;-65
2023/03/11 07:39:43;;;;;;;;;;;;;;;2.43;77.04;99764.16;4169995;28;20020;-61
2023/03/11 07:41:46;;;;;;;;;;;;;;;2.42;77.10;99773.13;4170799;28;20127;-61
2023/03/11 07:43:48;;;;;;;;;;;;;;;2.39;77.12;99770.75;4170731;28;20020;-61
2023/03/11 07:45:50;;;;;;;;;;;;;;;2.38;77.03;99774.41;4174101;28;20027;-63
2023/03/11 07:47:52;;;;;;;;;;;;;;;2.39;76.77;99777.91;4175262;28;20434;-62
2023/03/11 07:49:54;;;;;;;;;;;;;;;2.37;76.65;99783.41;4170667;28;20031;-63
2023/03/11 07:51:56;;;;;;;;;;;;;;;2.37;76.88;99796.72;4167075;28;20011;-67
2023/03/11 07:53:58;;;;;;;;;;;;;;;2.37;76.61;99796.72;4173363;28;20027;-64
2023/03/11 07:56:00;;;;;;;;;;;;;;;2.36;76.42;99800.34;4176467;28;20364;-65
2023/03/11 07:58:04;;;;;;;;;;;;;;;2.38;76.49;99810.88;4174304;28;20023;-63
2023/03/11 08:00:06;;;;;;;;;;;;;;;2.40;76.78;99814.22;4171874;28;20019;-63
2023/03/11 08:02:13;;;;;;;;;;;;;;;2.43;76.82;99824.59;4173235;28;20032;-64
2023/03/11 08:04:16;;;;;;;;;;;;;;;2.44;76.76;99819.13;4175112;28;20358;-62
2023/03/11 08:06:19;;;;;;;;;;;;;;;2.47;76.19;99825.97;4175789;28;20365;-62
2023/03/11 08:08:21;;;;;;;;;;;;;;;2.50;76.03;99825.69;4172351;28;20401;-64
2023/03/11 08:10:23;;;;;;;;;;;;;;;2.51;76.02;99830.06;4176253;28;20485;-64
2023/03/11 08:12:25;;;;;;;;;;;;;;;2.52;75.51;99842.38;4175808;28;20016;-65
2023/03/11 08:14:28;;;;;;;;;;;;;;;2.52;75.13;99848.56;4175405;28;20028;-62
2023/03/11 08:16:30;;;;;;;;;;;;;;;2.53;75.28;99852.06;4174892;28;20068;-64
2023/03/11 08:18:32;;;;;;;;;;;;;;;2.55;75.48;99865.25;4174760;28;20019;-64
2023/03/11 08:20:35;;;;;;;;;;;;;;;2.56;75.48;99858.94;4175518;28;20024;-65
2023/03/11 08:22:38;;;;;;;;;;;;;;;2.57;75.13;99866.78;4173183;28;20019;-63
2023/03/11 08:24:40;;;;;;;;;;;;;;;2.56;74.97;99873.09;4168611;28;20031;-64
2023/03/11 08:26:42;;;;;;;;;;;;;;;2.58;75.12;99879.09;4178543;28;20359;-63
2023/03/11 08:28:44;;;;;;;;;;;;;;;2.60;74.92;99879.81;4179432;28;20446;-62
2023/03/11 08:30:47;;;;;;;;;;;;;;;2.62;75.30;99877.84;4172035;28;20016;-62
2023/03/11 08:32:49;;;;;;;;;;;;;;;2.67;75.68;99891.56;4176926;28;20378;-62
2023/03/11 08:34:51;;;;;;;;;;;;;;;2.73;75.68;99899.94;4170344;28;20015;-62
2023/03/11 08:36:53;;;;;;;;;;;;;;;2.77;75.71;99896.84;4176933;28;20019;-66
2023/03/11 08:38:55;;;;;;;;;;;;;;;2.83;76.25;99892.75;4179138;28;20371;-64
2023/03/11 08:40:57;;;;;;;;;;;;;;;2.90;76.52;99907.19;4179593;28;20373;-62
2023/03/11 08:42:59;;;;;;;;;;;;;;;2.96;76.58;99909.28;4178307;28;20016;-64
2023/03/11 08:45:01;;;;;;;;;;;;;;;2.99;76.62;99916.13;4179644;28;20024;-62
2023/03/11 08:47:04;;;;;;;;;;;;;;;3.05;77.09;99916.34;4178421;28;20023;-65
2023/03/11 08:49:06;;;;;;;;;;;;;;;3.13;77.35;99920.13;4178406;28;20019;-63
2023/03/11 08:51:09;;;;;;;;;;;;;;;3.18;77.46;99931.19;4180300;28;20027;-65
2023/03/11 08:53:11;;;;;;;;;;;;;;;3.21;77.27;99925.53;4178285;28;20020;-66
2023/03/11 08:55:13;;;;;;;;;;;;;;;3.24;77.04;99946.59;4179461;28;20020;-64
2023/03/11 08:57:15;;;;;;;;;;;;;;;3.28;76.91;99941.81;4179586;28;20012;-64
2023/03/11 08:59:17;;;;;;;;;;;;;;;3.32;76.47;99940.50;4180261;28;20011;-63
2023/03/11 09:01:20;;;;;;;;;;;;;;;3.33;76.34;99942.19;4179372;28;20012;-61
2023/03/11 09:03:23;;;;;;;;;;;;;;;3.39;76.64;99952.28;4178275;28;20023;-64
2023/03/11 09:05:25;;;;;;;;;;;;;;;3.47;77.33;99946.19;4178473;28;20027;-62
2023/03/11 09:07:27;;;;;;;;;;;;;;;3.54;77.34;99961.47;4178787;28;20075;-67
2023/03/11 09:09:29;;;;;;;;;;;;;;;3.59;77.16;99963.69;4179756;28;20022;-62
2023/03/11 09:11:31;;;;;;;;;;;;;;;3.63;77.10;99972.22;4179386;28;20447;-61
2023/03/11 09:13:33;;;;;;;;;;;;;;;3.63;76.61;99975.72;4178306;28;20444;-64
2023/03/11 09:15:35;;;;;;;;;;;;;;;3.68;77.07;99964.59;4177357;28;20031;-64
2023/03/11 09:17:37;;;;;;;;;;;;;;;3.74;76.96;99974.66;4177467;28;20047;-64
2023/03/11 09:19:40;;;;;;;;;;;;;;;3.74;75.89;99972.81;4177041;28;20019;-61
2023/03/11 09:21:42;;;;;;;;;;;;;;;3.75;75.41;99984.38;4175882;28;19988;-64
2023/03/11 09:23:44;;;;;;;;;;;;;;;3.72;74.88;99982.00;4177296;28;20020;-61
2023/03/11 09:25:46;;;;;;;;;;;;;;;3.70;74.53;99986.63;4176501;28;20015;-62
2023/03/11 09:27:48;;;;;;;;;;;;;;;3.68;73.79;99985.97;4177526;28;20015;-62
2023/03/11 09:29:50;;;;;;;;;;;;;;;3.66;74.48;99993.28;4180202;28;20015;-66
2023/03/11 09:31:52;;;;;;;;;;;;;;;3.64;74.24;99995.25;4177554;28;20067;-64
2023/03/11 09:33:55;;;;;;;;;;;;;;;3.63;74.89;99997.09;4177911;28;20131;-62
2023/03/11 09:35:58;;;;;;;;;;;;;;;3.64;74.80;99997.91;4178219;28;20012;-62
2023/03/11 09:38:00;;;;;;;;;;;;;;;3.65;74.31;99999.59;4177113;28;20024;-63
2023/03/11 09:40:03;;;;;;;;;;;;;;;3.67;74.10;100005.63;4178080;28;20028;-63
2023/03/11 09:42:06;;;;;;;;;;;;;;;3.67;74.33;100008.31;4192945;28;20007;-63
2023/03/11 09:44:11;;;;;;;;;;;;;;;3.64;73.47;100017.47;4179354;28;20031;-63
2023/03/11 09:46:20;;;;;;;;;;;;;;;3.63;73.59;100010.44;4179727;28;20003;-63
2023/03/11 09:48:22;;;;;;;;;;;;;;;3.63;74.31;100014.94;4177769;28;21777;-63
2023/03/11 09:50:26;;;;;;;;;;;;;;;3.61;73.96;100013.25;4177050;28;20024;-66
2023/03/11 09:52:30;;;;;;;;;;;;;;;3.59;73.88;100023.25;4174396;28;20031;-64
2023/03/11 09:54:34;;;;;;;;;;;;;;;3.58;74.44;100028.75;4174050;28;20015;-63
2023/03/11 09:56:36;;;;;;;;;;;;;;;3.57;73.77;100024.38;4176093;28;20024;-62
2023/03/11 09:58:39;;;;;;;;;;;;;;;3.53;73.61;100036.38;4178732;28;20083;-61
2023/03/11 10:00:41;;;;;;;;;;;;;;;3.52;74.08;100035.50;4178056;28;20019;-62
2023/03/11 10:02:43;;;;;;;;;;;;;;;3.50;73.63;100039.34;4175957;28;20032;-62
2023/03/11 10:04:45;;;;;;;;;;;;;;;3.48;73.38;100047.50;4179118;28;20024;-62
2023/03/11 10:06:48;;;;;;;;;;;;;;;3.45;73.75;100053.13;4178629;28;20592;-59
2023/03/11 10:08:54;;;;;;;;;;;;;;;3.43;73.61;100055.94;4178687;28;20434;-61
2023/03/11 10:11:00;;;;;;;;;;;;;;;3.37;73.08;100059.22;4177310;28;20031;-57
2023/03/11 10:13:04;;;;;;;;;;;;;;;3.34;73.28;100062.16;4178026;28;20008;-65
2023/03/11 10:15:09;;;;;;;;;;;;;;;3.32;73.44;100063.28;4173716;28;20008;-62
2023/03/11 10:17:13;;;;;;;;;;;;;;;3.29;73.67;100064.44;4174111;28;20019;-63
2023/03/11 10:19:16;;;;;;;;;;;;;;;3.29;73.91;100069.78;4176641;28;20023;-63
2023/03/11 10:21:20;;;;;;;;;;;;;;;3.25;73.73;100071.88;4179219;28;20442;-65
2023/03/11 10:23:25;;;;;;;;;;;;;;;3.28;73.70;100089.44;4171560;28;21575;-64
2023/03/11 10:25:28;;;;;;;;;;;;;;;3.29;73.99;100083.13;4175123;28;20769;-65
2023/03/11 10:27:33;;;;;;;;;;;;;;;3.32;74.35;100088.16;4180117;28;20011;-64
2023/03/11 10:29:38;;;;;;;;;;;;;;;3.34;74.62;100090.66;4179711;28;20023;-63
2023/03/11 10:31:41;;;;;;;;;;;;;;;3.38;75.03;100094.75;4194016;28;20011;-63
2023/03/11 10:33:43;;;;;;;;;;;;;;;3.39;74.19;100102.59;4178175;28;20430;-62
2023/03/11 10:35:46;;;;;;;;;;;;;;;3.43;74.62;100097.81;4177242;28;20040;-64
2023/03/11 10:37:49;;;;;;;;;;;;;;;3.46;74.61;100100.19;4173523;28;20020;-64
2023/03/11 10:39:51;;;;;;;;;;;;;;;3.60;75.46;100104.19;4175698;28;20027;-63
2023/03/11 10:41:55;;;;;;;;;;;;;;;3.68;75.69;100109.63;4176813;28;20011;-64
2023/03/11 10:44:00;;;;;;;;;;;;;;;3.70;74.37;100109.50;4177991;28;20032;-63
2023/03/11 10:46:02;;;;;;;;;;;;;;;3.71;74.28;100111.19;4177488;28;20011;-63